Terminal Aerodrome Forecast
Issued by NWS

Home | Current Version | Previous Version | Text Only | Print | Product List | Glossary Off
Versions: 1 2 3 4 5 6 7 8 9 10 11 12 13 14 15 16 17 18 19

000
FTUS43 KTOP 241100
TAFFOE
TAF
KFOE 241120Z 2412/2512 VRB05KT P6SM SCT009 BKN035
     FM241800 16013KT P6SM -SHRA BKN025
      TEMPO 2422/2502 4SM -TSRA OVC015CB
     FM250200 16008KT 4SM -RA BR OVC010
     FM250600 19006KT P6SM SCT010 BKN040=

USA.gov is the U.S. government's official web portal to all federal, state and local government web resources and services.